sensor_id;sensor_type;location;lat;lon;timestamp;pressure;altitude;pressure_sealevel;temperature;humidity
3250;BME280;1637;42.020;23.992;2023-04-26T00:02:26;91866.94;;;9.81;100.00
3250;BME280;1637;42.020;23.992;2023-04-26T00:04:53;91852.41;;;9.82;100.00
3250;BME280;1637;42.020;23.992;2023-04-26T00:07:21;91850.06;;;9.84;100.00
3250;BME280;1637;42.020;23.992;2023-04-26T00:09:49;91852.09;;;9.96;100.00
3250;BME280;1637;42.020;23.992;2023-04-26T00:12:17;91843.44;;;10.21;100.00
3250;BME280;1637;42.020;23.992;2023-04-26T00:14:44;91842.34;;;10.35;100.00
3250;BME280;1637;42.020;23.992;2023-04-26T00:17:11;91834.66;;;10.37;100.00
3250;BME280;1637;42.020;23.992;2023-04-26T00:19:37;91826.09;;;10.42;100.00
3250;BME280;1637;42.020;23.992;2023-04-26T00:22:05;91825.75;;;10.56;100.00
3250;BME280;1637;42.020;23.992;2023-04-26T00:24:33;91793.69;;;10.23;100.00
3250;BME280;1637;42.020;23.992;2023-04-26T00:27:00;91825.13;;;10.36;100.00
3250;BME280;1637;42.020;23.992;2023-04-26T00:29:31;91826.31;;;10.35;100.00
3250;BME280;1637;42.020;23.992;2023-04-26T00:31:58;91770.59;;;9.84;100.00
3250;BME280;1637;42.020;23.992;2023-04-26T00:34:31;91808.13;;;9.81;100.00
3250;BME280;1637;42.020;23.992;2023-04-26T00:36:58;91798.34;;;9.42;100.00
3250;BME280;1637;42.020;23.992;2023-04-26T00:39:25;91802.38;;;9.34;100.00
3250;BME280;1637;42.020;23.992;2023-04-26T00:41:52;91842.06;;;9.51;100.00
3250;BME280;1637;42.020;23.992;2023-04-26T00:44:19;91826.75;;;9.68;100.00
3250;BME280;1637;42.020;23.992;2023-04-26T00:46:47;91835.03;;;9.90;100.00
3250;BME280;1637;42.020;23.992;2023-04-26T00:49:16;91847.72;;;10.18;100.00
3250;BME280;1637;42.020;23.992;2023-04-26T00:51:44;91845.88;;;10.15;100.00
3250;BME280;1637;42.020;23.992;2023-04-26T00:54:12;91834.44;;;10.15;100.00
3250;BME280;1637;42.020;23.992;2023-04-26T00:56:39;91850.75;;;10.49;100.00
3250;BME280;1637;42.020;23.992;2023-04-26T00:59:07;91841.25;;;10.61;100.00
3250;BME280;1637;42.020;23.992;2023-04-26T01:01:34;91831.97;;;10.65;100.00
3250;BME280;1637;42.020;23.992;2023-04-26T01:04:03;91832.06;;;10.62;100.00
3250;BME280;1637;42.020;23.992;2023-04-26T01:06:33;91853.41;;;10.37;100.00
3250;BME280;1637;42.020;23.992;2023-04-26T01:09:02;91814.31;;;9.94;100.00
3250;BME280;1637;42.020;23.992;2023-04-26T01:11:30;91814.03;;;10.21;100.00
3250;BME280;1637;42.020;23.992;2023-04-26T01:13:57;91819.03;;;10.35;100.00
3250;BME280;1637;42.020;23.992;2023-04-26T01:16:24;91808.75;;;10.17;100.00
3250;BME280;1637;42.020;23.992;2023-04-26T01:18:53;91801.59;;;9.82;100.00
3250;BME280;1637;42.020;23.992;2023-04-26T01:21:21;91819.66;;;9.78;100.00
3250;BME280;1637;42.020;23.992;2023-04-26T01:23:50;91815.00;;;9.49;100.00
3250;BME280;1637;42.020;23.992;2023-04-26T01:26:17;91823.16;;;9.58;100.00
3250;BME280;1637;42.020;23.992;2023-04-26T01:28:44;91822.59;;;9.51;100.00
3250;BME280;1637;42.020;23.992;2023-04-26T01:31:11;91810.53;;;9.43;100.00
3250;BME280;1637;42.020;23.992;2023-04-26T01:33:38;91809.22;;;9.35;100.00
3250;BME280;1637;42.020;23.992;2023-04-26T01:36:07;91807.44;;;9.28;100.00
3250;BME280;1637;42.020;23.992;2023-04-26T01:38:34;91819.22;;;9.30;100.00
3250;BME280;1637;42.020;23.992;2023-04-26T01:41:03;91806.84;;;9.20;100.00
3250;BME280;1637;42.020;23.992;2023-04-26T01:43:30;91812.13;;;9.24;100.00
3250;BME280;1637;42.020;23.992;2023-04-26T01:45:56;91805.41;;;9.16;100.00
3250;BME280;1637;42.020;23.992;2023-04-26T01:48:23;91805.25;;;9.07;100.00
3250;BME280;1637;42.020;23.992;2023-04-26T01:50:50;91798.13;;;9.00;100.00
3250;BME280;1637;42.020;23.992;2023-04-26T01:53:17;91797.78;;;8.98;100.00
3250;BME280;1637;42.020;23.992;2023-04-26T01:55:44;91790.03;;;9.04;100.00
3250;BME280;1637;42.020;23.992;2023-04-26T01:58:12;91796.81;;;9.08;100.00
3250;BME280;1637;42.020;23.992;2023-04-26T02:00:39;91791.31;;;9.15;100.00
3250;BME280;1637;42.020;23.992;2023-04-26T02:03:06;91782.06;;;9.20;100.00
3250;BME280;1637;42.020;23.992;2023-04-26T02:05:32;91801.78;;;9.26;100.00
3250;BME280;1637;42.020;23.992;2023-04-26T02:07:59;91800.50;;;9.14;100.00
3250;BME280;1637;42.020;23.992;2023-04-26T02:10:26;91804.44;;;9.26;100.00
3250;BME280;1637;42.020;23.992;2023-04-26T02:12:53;91808.47;;;9.34;100.00
3250;BME280;1637;42.020;23.992;2023-04-26T02:15:21;91815.31;;;9.35;100.00
3250;BME280;1637;42.020;23.992;2023-04-26T02:17:48;91802.59;;;9.23;100.00
3250;BME280;1637;42.020;23.992;2023-04-26T02:20:15;91806.69;;;9.11;100.00
3250;BME280;1637;42.020;23.992;2023-04-26T02:22:41;91797.00;;;8.81;100.00
3250;BME280;1637;42.020;23.992;2023-04-26T02:25:08;91793.13;;;8.66;100.00
3250;BME280;1637;42.020;23.992;2023-04-26T02:27:36;91752.81;;;8.21;100.00
3250;BME280;1637;42.020;23.992;2023-04-26T02:30:04;91778.28;;;8.25;100.00
3250;BME280;1637;42.020;23.992;2023-04-26T02:32:32;91744.75;;;8.05;100.00
3250;BME280;1637;42.020;23.992;2023-04-26T02:34:59;91782.03;;;8.28;100.00
3250;BME280;1637;42.020;23.992;2023-04-26T02:37:26;91787.44;;;8.64;100.00
3250;BME280;1637;42.020;23.992;2023-04-26T02:39:52;91783.03;;;8.74;100.00
3250;BME280;1637;42.020;23.992;2023-04-26T02:42:19;91790.44;;;8.86;100.00
3250;BME280;1637;42.020;23.992;2023-04-26T02:44:46;91783.75;;;8.94;100.00
3250;BME280;1637;42.020;23.992;2023-04-26T02:47:13;91788.25;;;8.81;100.00
3250;BME280;1637;42.020;23.992;2023-04-26T02:49:41;91792.09;;;8.60;100.00
3250;BME280;1637;42.020;23.992;2023-04-26T02:52:08;91783.47;;;8.33;100.00
3250;BME280;1637;42.020;23.992;2023-04-26T02:54:35;91788.06;;;8.32;100.00
3250;BME280;1637;42.020;23.992;2023-04-26T02:57:01;91795.09;;;8.22;100.00
3250;BME280;1637;42.020;23.992;2023-04-26T02:59:28;91795.38;;;8.08;100.00
3250;BME280;1637;42.020;23.992;2023-04-26T03:01:55;91790.66;;;7.92;100.00
3250;BME280;1637;42.020;23.992;2023-04-26T03:04:22;91799.31;;;7.77;100.00
3250;BME280;1637;42.020;23.992;2023-04-26T03:06:50;91789.47;;;7.74;100.00
3250;BME280;1637;42.020;23.992;2023-04-26T03:09:17;91841.97;;;7.77;100.00
3250;BME280;1637;42.020;23.992;2023-04-26T03:11:44;91788.31;;;7.75;100.00
3250;BME280;1637;42.020;23.992;2023-04-26T03:14:11;91793.25;;;7.76;100.00
3250;BME280;1637;42.020;23.992;2023-04-26T03:16:40;91793.59;;;7.78;100.00
3250;BME280;1637;42.020;23.992;2023-04-26T03:19:07;91787.31;;;7.69;100.00
3250;BME280;1637;42.020;23.992;2023-04-26T03:21:34;91793.69;;;7.71;100.00
3250;BME280;1637;42.020;23.992;2023-04-26T03:24:03;91789.06;;;7.75;100.00
3250;BME280;1637;42.020;23.992;2023-04-26T03:26:29;91777.16;;;7.60;100.00
3250;BME280;1637;42.020;23.992;2023-04-26T03:28:56;91791.13;;;7.68;100.00
3250;BME280;1637;42.020;23.992;2023-04-26T03:31:23;91797.25;;;7.65;100.00
3250;BME280;1637;42.020;23.992;2023-04-26T03:33:50;91787.97;;;7.49;100.00
3250;BME280;1637;42.020;23.992;2023-04-26T03:36:17;91794.44;;;7.48;100.00
3250;BME280;1637;42.020;23.992;2023-04-26T03:38:44;91799.63;;;7.59;100.00
3250;BME280;1637;42.020;23.992;2023-04-26T03:41:13;91769.91;;;7.37;100.00
3250;BME280;1637;42.020;23.992;2023-04-26T03:43:39;91795.50;;;7.78;100.00
3250;BME280;1637;42.020;23.992;2023-04-26T03:46:06;91807.16;;;7.87;100.00
3250;BME280;1637;42.020;23.992;2023-04-26T03:48:33;91808.22;;;7.90;100.00
3250;BME280;1637;42.020;23.992;2023-04-26T03:51:00;91819.94;;;7.73;100.00
3250;BME280;1637;42.020;23.992;2023-04-26T03:53:28;91814.81;;;7.62;100.00
3250;BME280;1637;42.020;23.992;2023-04-26T03:55:54;91813.00;;;7.55;100.00
3250;BME280;1637;42.020;23.992;2023-04-26T03:58:24;91830.00;;;7.65;100.00
3250;BME280;1637;42.020;23.992;2023-04-26T04:00:51;91823.72;;;7.75;100.00
3250;BME280;1637;42.020;23.992;2023-04-26T04:03:18;91815.31;;;7.53;100.00
3250;BME280;1637;42.020;23.992;2023-04-26T04:05:45;91826.97;;;7.63;100.00
3250;BME280;1637;42.020;23.992;2023-04-26T04:08:12;91825.47;;;7.62;100.00
3250;BME280;1637;42.020;23.992;2023-04-26T04:10:40;91821.66;;;7.63;100.00
3250;BME280;1637;42.020;23.992;2023-04-26T04:13:07;91826.97;;;7.63;100.00
3250;BME280;1637;42.020;23.992;2023-04-26T04:15:35;91834.44;;;7.72;100.00
3250;BME280;1637;42.020;23.992;2023-04-26T04:18:02;91831.28;;;8.23;100.00
3250;BME280;1637;42.020;23.992;2023-04-26T04:20:29;91834.72;;;8.83;100.00
3250;BME280;1637;42.020;23.992;2023-04-26T04:22:55;91828.78;;;8.76;100.00
3250;BME280;1637;42.020;23.992;2023-04-26T04:25:23;91829.28;;;8.51;100.00
3250;BME280;1637;42.020;23.992;2023-04-26T04:27:51;91824.69;;;8.51;100.00
3250;BME280;1637;42.020;23.992;2023-04-26T04:30:18;91818.91;;;8.33;100.00
3250;BME280;1637;42.020;23.992;2023-04-26T04:32:46;91822.88;;;8.25;100.00
3250;BME280;1637;42.020;23.992;2023-04-26T04:35:13;91823.28;;;8.23;100.00
3250;BME280;1637;42.020;23.992;2023-04-26T04:37:40;91824.59;;;8.35;100.00
3250;BME280;1637;42.020;23.992;2023-04-26T04:40:09;91821.88;;;8.39;100.00
3250;BME280;1637;42.020;23.992;2023-04-26T04:42:36;91825.00;;;8.34;100.00
3250;BME280;1637;42.020;23.992;2023-04-26T04:45:03;91829.94;;;8.35;100.00
3250;BME280;1637;42.020;23.992;2023-04-26T04:47:30;91818.38;;;8.42;100.00
3250;BME280;1637;42.020;23.992;2023-04-26T04:49:59;91826.63;;;8.51;100.00
3250;BME280;1637;42.020;23.992;2023-04-26T04:52:26;91824.59;;;8.55;100.00
3250;BME280;1637;42.020;23.992;2023-04-26T04:54:53;91818.38;;;8.42;100.00
3250;BME280;1637;42.020;23.992;2023-04-26T04:57:20;91820.19;;;8.25;100.00
3250;BME280;1637;42.020;23.992;2023-04-26T04:59:47;91828.88;;;8.09;100.00
3250;BME280;1637;42.020;23.992;2023-04-26T05:02:13;91831.06;;;7.91;100.00
3250;BME280;1637;42.020;23.992;2023-04-26T05:04:40;91834.50;;;7.91;100.00
3250;BME280;1637;42.020;23.992;2023-04-26T05:07:08;91831.00;;;7.94;100.00
3250;BME280;1637;42.020;23.992;2023-04-26T05:09:35;91829.91;;;7.92;100.00
3250;BME280;1637;42.020;23.992;2023-04-26T05:12:03;91833.50;;;8.05;100.00
3250;BME280;1637;42.020;23.992;2023-04-26T05:14:29;91816.91;;;8.17;100.00
3250;BME280;1637;42.020;23.992;2023-04-26T05:16:56;91832.50;;;8.19;100.00
3250;BME280;1637;42.020;23.992;2023-04-26T05:19:23;91828.97;;;8.25;100.00
3250;BME280;1637;42.020;23.992;2023-04-26T05:21:51;91803.59;;;8.37;100.00
3250;BME280;1637;42.020;23.992;2023-04-26T05:24:19;91824.47;;;8.62;100.00
3250;BME280;1637;42.020;23.992;2023-04-26T05:26:46;91820.03;;;9.11;100.00
3250;BME280;1637;42.020;23.992;2023-04-26T05:29:13;91801.00;;;9.25;100.00
3250;BME280;1637;42.020;23.992;2023-04-26T05:31:40;91823.25;;;9.55;100.00
3250;BME280;1637;42.020;23.992;2023-04-26T05:34:06;91827.25;;;9.63;100.00
3250;BME280;1637;42.020;23.992;2023-04-26T05:36:33;91820.22;;;9.37;100.00
3250;BME280;1637;42.020;23.992;2023-04-26T05:39:00;91825.25;;;9.35;100.00
3250;BME280;1637;42.020;23.992;2023-04-26T05:41:28;91834.09;;;9.32;100.00
3250;BME280;1637;42.020;23.992;2023-04-26T05:43:55;91839.19;;;9.42;100.00
3250;BME280;1637;42.020;23.992;2023-04-26T05:46:22;91833.44;;;9.60;100.00
3250;BME280;1637;42.020;23.992;2023-04-26T05:48:49;91843.41;;;9.76;100.00
3250;BME280;1637;42.020;23.992;2023-04-26T05:51:16;91840.63;;;10.12;100.00
3250;BME280;1637;42.020;23.992;2023-04-26T05:53:43;91844.28;;;10.34;100.00
3250;BME280;1637;42.020;23.992;2023-04-26T05:56:10;91835.41;;;10.37;100.00
3250;BME280;1637;42.020;23.992;2023-04-26T05:58:38;91836.47;;;10.40;98.36
3250;BME280;1637;42.020;23.992;2023-04-26T06:01:05;91824.16;;;10.58;99.56
3250;BME280;1637;42.020;23.992;2023-04-26T06:03:31;91823.41;;;10.71;98.96
3250;BME280;1637;42.020;23.992;2023-04-26T06:05:58;91818.47;;;10.56;99.41
3250;BME280;1637;42.020;23.992;2023-04-26T06:08:26;91820.97;;;10.76;96.64
3250;BME280;1637;42.020;23.992;2023-04-26T06:10:53;91821.25;;;11.70;93.87
3250;BME280;1637;42.020;23.992;2023-04-26T06:13:20;91818.97;;;12.07;88.92
3250;BME280;1637;42.020;23.992;2023-04-26T06:15:48;91825.41;;;12.10;88.16
3250;BME280;1637;42.020;23.992;2023-04-26T06:18:15;91830.19;;;12.27;88.02
3250;BME280;1637;42.020;23.992;2023-04-26T06:20:41;91830.06;;;12.31;88.43
3250;BME280;1637;42.020;23.992;2023-04-26T06:23:08;91836.19;;;12.66;86.24
3250;BME280;1637;42.020;23.992;2023-04-26T06:25:35;91834.09;;;13.14;84.83
3250;BME280;1637;42.020;23.992;2023-04-26T06:28:02;91830.22;;;13.15;84.18
3250;BME280;1637;42.020;23.992;2023-04-26T06:30:29;91825.59;;;12.71;86.95
3250;BME280;1637;42.020;23.992;2023-04-26T06:32:57;91818.88;;;12.32;90.72
3250;BME280;1637;42.020;23.992;2023-04-26T06:35:25;91805.56;;;12.42;89.71
3250;BME280;1637;42.020;23.992;2023-04-26T06:37:52;91812.59;;;12.92;87.13
3250;BME280;1637;42.020;23.992;2023-04-26T06:40:18;91819.75;;;13.07;86.91
3250;BME280;1637;42.020;23.992;2023-04-26T06:42:46;91827.00;;;14.00;81.49
3250;BME280;1637;42.020;23.992;2023-04-26T06:45:13;91828.56;;;14.28;78.74
3250;BME280;1637;42.020;23.992;2023-04-26T06:47:40;91832.34;;;14.95;75.34
3250;BME280;1637;42.020;23.992;2023-04-26T06:50:09;91821.41;;;14.80;75.94
3250;BME280;1637;42.020;23.992;2023-04-26T06:52:36;91831.09;;;14.23;79.61
3250;BME280;1637;42.020;23.992;2023-04-26T06:55:03;91824.69;;;13.40;80.60
3250;BME280;1637;42.020;23.992;2023-04-26T06:57:31;91830.19;;;12.62;88.20
3250;BME280;1637;42.020;23.992;2023-04-26T06:59:58;91827.09;;;12.72;85.40
3250;BME280;1637;42.020;23.992;2023-04-26T07:02:25;91826.31;;;12.85;83.92
3250;BME280;1637;42.020;23.992;2023-04-26T07:04:51;91831.28;;;12.73;86.14
3250;BME280;1637;42.020;23.992;2023-04-26T07:07:19;91837.63;;;13.01;86.11
3250;BME280;1637;42.020;23.992;2023-04-26T07:09:46;91834.31;;;12.97;82.47
3250;BME280;1637;42.020;23.992;2023-04-26T07:12:13;91836.25;;;13.19;83.53
3250;BME280;1637;42.020;23.992;2023-04-26T07:14:40;91834.38;;;13.28;83.55
3250;BME280;1637;42.020;23.992;2023-04-26T07:17:07;91839.56;;;14.03;80.01
3250;BME280;1637;42.020;23.992;2023-04-26T07:19:34;91835.72;;;14.22;80.18
3250;BME280;1637;42.020;23.992;2023-04-26T07:22:01;91845.34;;;14.41;78.44
3250;BME280;1637;42.020;23.992;2023-04-26T07:24:30;91831.59;;;14.76;76.95
3250;BME280;1637;42.020;23.992;2023-04-26T07:26:57;91841.47;;;14.97;74.92
3250;BME280;1637;42.020;23.992;2023-04-26T07:29:24;91837.28;;;14.78;72.64
3250;BME280;1637;42.020;23.992;2023-04-26T07:31:50;91836.09;;;14.42;76.37
3250;BME280;1637;42.020;23.992;2023-04-26T07:34:17;91832.59;;;14.24;76.07
3250;BME280;1637;42.020;23.992;2023-04-26T07:36:44;91833.81;;;14.32;77.09
3250;BME280;1637;42.020;23.992;2023-04-26T07:39:11;91830.41;;;14.68;76.13
3250;BME280;1637;42.020;23.992;2023-04-26T07:41:39;91833.56;;;13.99;78.54
3250;BME280;1637;42.020;23.992;2023-04-26T07:44:06;91836.06;;;14.33;75.44
3250;BME280;1637;42.020;23.992;2023-04-26T07:46:33;91833.31;;;14.15;76.19
3250;BME280;1637;42.020;23.992;2023-04-26T07:48:59;91831.75;;;14.63;77.85
3250;BME280;1637;42.020;23.992;2023-04-26T07:51:26;91829.81;;;13.96;78.02
3250;BME280;1637;42.020;23.992;2023-04-26T07:53:53;91830.69;;;14.42;77.66
3250;BME280;1637;42.020;23.992;2023-04-26T07:56:20;91837.31;;;14.69;74.69
3250;BME280;1637;42.020;23.992;2023-04-26T07:58:49;91838.34;;;14.71;72.33
3250;BME280;1637;42.020;23.992;2023-04-26T08:01:16;91842.22;;;14.98;71.43
3250;BME280;1637;42.020;23.992;2023-04-26T08:03:43;91839.81;;;15.09;70.81
3250;BME280;1637;42.020;23.992;2023-04-26T08:06:10;91842.69;;;14.60;73.24
3250;BME280;1637;42.020;23.992;2023-04-26T08:08:36;91833.84;;;14.41;73.98
3250;BME280;1637;42.020;23.992;2023-04-26T08:11:08;91835.88;;;14.09;75.36
3250;BME280;1637;42.020;23.992;2023-04-26T08:13:36;91833.25;;;13.88;77.52
3250;BME280;1637;42.020;23.992;2023-04-26T08:16:04;91818.69;;;13.36;79.88
3250;BME280;1637;42.020;23.992;2023-04-26T08:18:31;91827.22;;;13.74;77.81
3250;BME280;1637;42.020;23.992;2023-04-26T08:20:58;91831.75;;;14.54;72.43
3250;BME280;1637;42.020;23.992;2023-04-26T08:23:25;91834.00;;;14.83;73.77
3250;BME280;1637;42.020;23.992;2023-04-26T08:25:52;91828.91;;;14.67;73.91
3250;BME280;1637;42.020;23.992;2023-04-26T08:28:19;91823.66;;;14.63;69.04
3250;BME280;1637;42.020;23.992;2023-04-26T08:30:46;91822.59;;;14.33;68.41
3250;BME280;1637;42.020;23.992;2023-04-26T08:33:17;91822.88;;;14.35;69.50
3250;BME280;1637;42.020;23.992;2023-04-26T08:35:44;91826.47;;;14.32;70.30
3250;BME280;1637;42.020;23.992;2023-04-26T08:38:11;91825.88;;;14.28;68.54
3250;BME280;1637;42.020;23.992;2023-04-26T08:40:38;91826.75;;;13.67;69.00
3250;BME280;1637;42.020;23.992;2023-04-26T08:43:07;91831.16;;;13.52;71.67
3250;BME280;1637;42.020;23.992;2023-04-26T08:45:38;91837.47;;;13.98;71.35
3250;BME280;1637;42.020;23.992;2023-04-26T08:48:10;91838.03;;;13.93;71.71
3250;BME280;1637;42.020;23.992;2023-04-26T08:50:42;91838.28;;;13.76;73.64
3250;BME280;1637;42.020;23.992;2023-04-26T08:53:13;91837.44;;;13.18;78.92
3250;BME280;1637;42.020;23.992;2023-04-26T08:55:40;91837.59;;;12.58;82.95
3250;BME280;1637;42.020;23.992;2023-04-26T08:58:09;91822.31;;;12.33;87.62
3250;BME280;1637;42.020;23.992;2023-04-26T09:00:37;91842.94;;;12.36;91.48
3250;BME280;1637;42.020;23.992;2023-04-26T09:03:04;91830.81;;;11.71;95.90
3250;BME280;1637;42.020;23.992;2023-04-26T09:05:32;91838.38;;;11.10;99.83
3250;BME280;1637;42.020;23.992;2023-04-26T09:08:01;91841.25;;;10.90;100.00
3250;BME280;1637;42.020;23.992;2023-04-26T09:10:30;91839.06;;;10.72;100.00
3250;BME280;1637;42.020;23.992;2023-04-26T09:12:57;91845.59;;;10.71;100.00
3250;BME280;1637;42.020;23.992;2023-04-26T09:15:25;91857.81;;;10.72;100.00
3250;BME280;1637;42.020;23.992;2023-04-26T09:17:52;91851.69;;;11.13;100.00
3250;BME280;1637;42.020;23.992;2023-04-26T09:20:22;91853.56;;;11.42;100.00
3250;BME280;1637;42.020;23.992;2023-04-26T09:22:49;91845.06;;;11.68;100.00
3250;BME280;1637;42.020;23.992;2023-04-26T09:25:19;91866.31;;;12.01;99.37
3250;BME280;1637;42.020;23.992;2023-04-26T09:27:52;91860.34;;;12.31;100.00
3250;BME280;1637;42.020;23.992;2023-04-26T09:30:20;91867.09;;;12.70;100.00
3250;BME280;1637;42.020;23.992;2023-04-26T09:32:49;91866.00;;;12.81;100.00
3250;BME280;1637;42.020;23.992;2023-04-26T09:35:27;91865.13;;;13.05;97.74
3250;BME280;1637;42.020;23.992;2023-04-26T09:37:56;91882.75;;;13.06;98.65
3250;BME280;1637;42.020;23.992;2023-04-26T09:40:27;91859.44;;;13.03;91.74
3250;BME280;1637;42.020;23.992;2023-04-26T09:42:58;91859.34;;;13.38;91.23
3250;BME280;1637;42.020;23.992;2023-04-26T09:45:26;91863.06;;;13.62;91.85
3250;BME280;1637;42.020;23.992;2023-04-26T09:47:54;91862.50;;;13.67;95.49
3250;BME280;1637;42.020;23.992;2023-04-26T09:50:26;91823.47;;;13.32;92.20
3250;BME280;1637;42.020;23.992;2023-04-26T09:52:52;91857.97;;;13.33;84.87
3250;BME280;1637;42.020;23.992;2023-04-26T09:55:27;91847.63;;;13.23;87.36
3250;BME280;1637;42.020;23.992;2023-04-26T09:57:55;91823.44;;;13.01;90.47
3250;BME280;1637;42.020;23.992;2023-04-26T10:00:23;91849.88;;;13.24;94.08
3250;BME280;1637;42.020;23.992;2023-04-26T10:02:52;91843.44;;;13.22;85.63
3250;BME280;1637;42.020;23.992;2023-04-26T10:05:20;91836.47;;;13.12;92.91
3250;BME280;1637;42.020;23.992;2023-04-26T10:07:47;91836.91;;;13.10;91.54
3250;BME280;1637;42.020;23.992;2023-04-26T10:10:14;91832.38;;;13.20;88.57
3250;BME280;1637;42.020;23.992;2023-04-26T10:12:43;91833.66;;;13.68;91.82
3250;BME280;1637;42.020;23.992;2023-04-26T10:15:11;91834.97;;;13.63;88.01
3250;BME280;1637;42.020;23.992;2023-04-26T10:17:38;91831.19;;;13.21;86.31
3250;BME280;1637;42.020;23.992;2023-04-26T10:20:08;91827.38;;;13.09;84.27
3250;BME280;1637;42.020;23.992;2023-04-26T10:22:39;91796.47;;;12.48;87.22
3250;BME280;1637;42.020;23.992;2023-04-26T10:25:09;91813.75;;;12.60;89.69
3250;BME280;1637;42.020;23.992;2023-04-26T10:27:50;91818.28;;;12.94;85.95
3250;BME280;1637;42.020;23.992;2023-04-26T10:30:20;91821.38;;;12.83;85.04
3250;BME280;1637;42.020;23.992;2023-04-26T10:33:11;91815.06;;;12.77;83.59
3250;BME280;1637;42.020;23.992;2023-04-26T10:35:58;91820.34;;;12.12;81.70
3250;BME280;1637;42.020;23.992;2023-04-26T10:38:25;91862.25;;;11.71;89.45
3250;BME280;1637;42.020;23.992;2023-04-26T10:40:52;91808.25;;;11.69;86.06
3250;BME280;1637;42.020;23.992;2023-04-26T10:43:30;91820.94;;;11.56;82.07
3250;BME280;1637;42.020;23.992;2023-04-26T10:49:15;91832.63;;;11.49;85.56
3250;BME280;1637;42.020;23.992;2023-04-26T10:52:08;91828.56;;;11.57;83.88
3250;BME280;1637;42.020;23.992;2023-04-26T10:54:46;91828.88;;;11.59;87.24
3250;BME280;1637;42.020;23.992;2023-04-26T10:57:13;91828.66;;;11.54;86.13
3250;BME280;1637;42.020;23.992;2023-04-26T11:00:15;91831.22;;;11.32;87.62
3250;BME280;1637;42.020;23.992;2023-04-26T11:02:58;91809.75;;;11.07;86.63
3250;BME280;1637;42.020;23.992;2023-04-26T11:08:26;91841.22;;;11.31;88.27
3250;BME280;1637;42.020;23.992;2023-04-26T11:11:04;91839.59;;;11.34;83.36
3250;BME280;1637;42.020;23.992;2023-04-26T11:13:35;91839.94;;;11.36;89.41
3250;BME280;1637;42.020;23.992;2023-04-26T11:16:05;91854.81;;;11.24;84.13
3250;BME280;1637;42.020;23.992;2023-04-26T11:18:33;91835.41;;;11.33;87.04
3250;BME280;1637;42.020;23.992;2023-04-26T11:21:00;91840.34;;;11.22;84.67
3250;BME280;1637;42.020;23.992;2023-04-26T11:23:28;91847.97;;;11.36;88.24
3250;BME280;1637;42.020;23.992;2023-04-26T11:25:57;91841.81;;;11.10;86.06
3250;BME280;1637;42.020;23.992;2023-04-26T11:28:24;91847.41;;;11.16;84.71
3250;BME280;1637;42.020;23.992;2023-04-26T11:30:51;91846.75;;;10.99;88.87
3250;BME280;1637;42.020;23.992;2023-04-26T11:33:20;91849.31;;;11.02;90.75
3250;BME280;1637;42.020;23.992;2023-04-26T11:35:47;91854.47;;;11.22;84.76
3250;BME280;1637;42.020;23.992;2023-04-26T11:38:15;91845.16;;;11.14;86.33
3250;BME280;1637;42.020;23.992;2023-04-26T11:40:42;91848.16;;;11.16;85.88
3250;BME280;1637;42.020;23.992;2023-04-26T11:43:09;91837.34;;;11.20;83.51
3250;BME280;1637;42.020;23.992;2023-04-26T11:45:38;91851.59;;;11.29;81.76
3250;BME280;1637;42.020;23.992;2023-04-26T11:48:07;91854.50;;;11.35;81.25
3250;BME280;1637;42.020;23.992;2023-04-26T11:50:38;91833.91;;;11.32;77.20
3250;BME280;1637;42.020;23.992;2023-04-26T11:53:07;91845.38;;;11.45;76.57
3250;BME280;1637;42.020;23.992;2023-04-26T11:55:34;91843.56;;;11.67;80.17
3250;BME280;1637;42.020;23.992;2023-04-26T11:58:08;91848.72;;;11.75;81.75
3250;BME280;1637;42.020;23.992;2023-04-26T12:00:36;91845.72;;;11.73;86.54
3250;BME280;1637;42.020;23.992;2023-04-26T12:03:04;91839.41;;;11.79;91.70
3250;BME280;1637;42.020;23.992;2023-04-26T12:05:31;91846.28;;;11.80;90.17
3250;BME280;1637;42.020;23.992;2023-04-26T12:07:59;91849.69;;;11.68;85.81
3250;BME280;1637;42.020;23.992;2023-04-26T12:10:28;91849.28;;;11.82;84.42
3250;BME280;1637;42.020;23.992;2023-04-26T12:12:55;91841.22;;;11.69;85.23
3250;BME280;1637;42.020;23.992;2023-04-26T12:15:28;91851.19;;;11.44;85.72
3250;BME280;1637;42.020;23.992;2023-04-26T12:17:57;91842.06;;;11.66;89.52
3250;BME280;1637;42.020;23.992;2023-04-26T12:20:28;91845.91;;;11.27;90.45
3250;BME280;1637;42.020;23.992;2023-04-26T12:23:07;91912.28;;;11.23;91.78
3250;BME280;1637;42.020;23.992;2023-04-26T12:25:35;91841.81;;;11.23;95.89
3250;BME280;1637;42.020;23.992;2023-04-26T12:28:04;91831.34;;;11.16;94.66
3250;BME280;1637;42.020;23.992;2023-04-26T12:30:32;91847.16;;;10.97;94.32
3250;BME280;1637;42.020;23.992;2023-04-26T12:32:59;91843.06;;;10.80;91.10
3250;BME280;1637;42.020;23.992;2023-04-26T12:35:26;91844.41;;;10.72;92.08
3250;BME280;1637;42.020;23.992;2023-04-26T12:37:53;91762.94;;;10.15;86.87
3250;BME280;1637;42.020;23.992;2023-04-26T12:40:23;91850.34;;;10.80;94.24
3250;BME280;1637;42.020;23.992;2023-04-26T12:42:50;91819.91;;;10.45;97.51
3250;BME280;1637;42.020;23.992;2023-04-26T12:45:17;91838.41;;;10.68;100.00
3250;BME280;1637;42.020;23.992;2023-04-26T12:47:44;91835.22;;;10.73;100.00
3250;BME280;1637;42.020;23.992;2023-04-26T12:50:11;91839.06;;;10.72;100.00
3250;BME280;1637;42.020;23.992;2023-04-26T12:52:38;91830.78;;;10.66;100.00
3250;BME280;1637;42.020;23.992;2023-04-26T12:55:06;91831.25;;;10.78;100.00
3250;BME280;1637;42.020;23.992;2023-04-26T12:57:36;91806.94;;;10.43;100.00
3250;BME280;1637;42.020;23.992;2023-04-26T13:00:03;91828.41;;;10.56;100.00
3250;BME280;1637;42.020;23.992;2023-04-26T13:02:31;91828.16;;;10.50;100.00
3250;BME280;1637;42.020;23.992;2023-04-26T13:04:58;91842.31;;;10.51;100.00
3250;BME280;1637;42.020;23.992;2023-04-26T13:07:25;91837.97;;;10.41;100.00
3250;BME280;1637;42.020;23.992;2023-04-26T13:09:52;91847.38;;;10.32;100.00
3250;BME280;1637;42.020;23.992;2023-04-26T13:12:19;91849.09;;;10.55;100.00
3250;BME280;1637;42.020;23.992;2023-04-26T13:14:47;91861.28;;;10.56;100.00
3250;BME280;1637;42.020;23.992;2023-04-26T13:17:14;91848.97;;;10.88;100.00
3250;BME280;1637;42.020;23.992;2023-04-26T13:19:41;91853.13;;;10.89;96.36
3250;BME280;1637;42.020;23.992;2023-04-26T13:22:09;91853.88;;;10.89;98.50